createdAt,value
2019-03-25T00:03:18.386Z,12.93
2019-03-25T00:08:21.022Z,18.03
2019-03-25T00:13:23.642Z,15.07
2019-03-25T00:18:26.289Z,11.87
2019-03-25T00:23:29.014Z,14.00
2019-03-25T00:28:31.615Z,11.73
2019-03-25T00:33:34.237Z,12.57
2019-03-25T00:38:36.869Z,13.63
2019-03-25T00:43:39.466Z,11.50
2019-03-25T00:48:44.217Z,11.00
2019-03-25T00:53:46.934Z,13.23
2019-03-25T00:58:49.624Z,12.77
2019-03-25T01:03:52.372Z,15.13
2019-03-25T01:08:57.974Z,12.90
2019-03-25T01:14:00.606Z,12.87
2019-03-25T01:19:03.264Z,14.63
2019-03-25T01:24:05.882Z,18.97
2019-03-25T01:29:08.567Z,14.50
2019-03-25T01:34:11.207Z,19.53
2019-03-25T01:39:13.864Z,17.40
2019-03-25T01:44:16.509Z,19.07
2019-03-25T01:49:19.154Z,14.67
2019-03-25T01:54:21.748Z,20.13
2019-03-25T01:59:24.661Z,20.07
2019-03-25T02:04:27.135Z,19.57
2019-03-25T02:09:29.749Z,27.47
2019-03-25T02:14:34.748Z,21.67
2019-03-25T02:19:37.490Z,25.87
2019-03-25T02:24:40.081Z,24.73
2019-03-25T02:29:42.656Z,24.57
2019-03-25T02:34:45.312Z,22.33
2019-03-25T02:39:48.153Z,21.80
2019-03-25T02:44:50.793Z,23.17
2019-03-25T02:49:53.392Z,23.47
2019-03-25T02:55:02.280Z,22.40
2019-03-25T03:00:07.589Z,22.33
2019-03-25T03:05:10.497Z,21.10
2019-03-25T03:10:13.156Z,21.97
2019-03-25T03:15:15.754Z,20.47
2019-03-25T03:20:18.509Z,19.07
2019-03-25T03:25:21.104Z,16.40
2019-03-25T03:30:23.759Z,14.93
2019-03-25T03:35:26.533Z,14.13
2019-03-25T03:40:29.139Z,17.97
2019-03-25T03:45:31.737Z,19.57
2019-03-25T03:50:34.553Z,15.70
2019-03-25T03:55:38.772Z,19.47
2019-03-25T04:00:41.413Z,13.73
2019-03-25T04:05:44.047Z,18.97
2019-03-25T04:10:46.685Z,19.07
2019-03-25T04:15:49.298Z,18.00
2019-03-25T04:20:51.943Z,16.03
2019-03-25T04:25:54.522Z,16.70
2019-03-25T04:30:57.151Z,12.83
2019-03-25T04:35:59.827Z,14.10
2019-03-25T04:41:05.412Z,18.10
2019-03-25T04:46:08.009Z,17.50
2019-03-25T04:51:11.891Z,14.23
2019-03-25T04:56:14.470Z,11.33
2019-03-25T05:01:17.092Z,12.43
2019-03-25T05:06:22.002Z,11.10
2019-03-25T05:11:30.550Z,9.27
2019-03-25T05:16:29.164Z,17.17
2019-03-25T05:21:31.743Z,11.87
2019-03-25T05:26:34.474Z,8.70
2019-03-25T05:31:37.100Z,10.57
2019-03-25T05:36:41.857Z,14.17
2019-03-25T05:41:44.701Z,17.03
2019-03-25T05:46:47.311Z,14.53
2019-03-25T05:51:49.917Z,13.93
2019-03-25T05:57:02.055Z,10.63
2019-03-25T06:01:57.091Z,12.37
2019-03-25T06:06:59.695Z,13.43
2019-03-25T06:12:04.205Z,10.97
2019-03-25T06:17:08.412Z,9.77
2019-03-25T06:22:11.081Z,10.53
2019-03-25T06:27:14.647Z,12.63
2019-03-25T06:32:17.610Z,10.10
2019-03-25T06:37:20.329Z,12.43
2019-03-25T06:42:23.049Z,12.93
2019-03-25T06:47:25.752Z,8.23
2019-03-25T06:52:28.381Z,13.63
2019-03-25T06:57:31.045Z,16.73
2019-03-25T07:02:33.744Z,13.17
2019-03-25T07:07:36.303Z,8.83
2019-03-25T07:12:39.430Z,9.10
2019-03-25T07:17:42.084Z,11.00
2019-03-25T07:22:44.781Z,11.23
2019-03-25T07:27:48.711Z,15.47
2019-03-25T07:32:51.290Z,13.00
2019-03-25T07:37:54.055Z,14.30
2019-03-25T07:42:56.741Z,13.60
2019-03-25T07:47:59.397Z,16.23
2019-03-25T07:53:02.103Z,10.27
2019-03-25T07:58:04.808Z,9.30
2019-03-25T08:03:07.499Z,11.03
2019-03-25T08:08:10.236Z,9.70
2019-03-25T08:13:12.938Z,10.80
2019-03-25T08:18:15.660Z,9.60
2019-03-25T08:23:18.293Z,6.13
2019-03-25T08:28:20.873Z,6.83
2019-03-25T08:33:23.515Z,5.90
2019-03-25T08:38:27.354Z,8.17
2019-03-25T08:43:30.040Z,8.07
2019-03-25T08:48:32.718Z,4.87
2019-03-25T08:53:35.400Z,7.13
2019-03-25T08:58:38.230Z,9.13
2019-03-25T09:03:40.896Z,4.43
2019-03-25T09:08:44.733Z,4.17
2019-03-25T09:13:47.220Z,3.43
2019-03-25T09:18:49.940Z,4.80
2019-03-25T09:23:52.636Z,5.57
2019-03-25T09:28:55.234Z,4.17
2019-03-25T09:33:57.888Z,6.00
2019-03-25T09:39:00.618Z,6.17
2019-03-25T09:44:03.646Z,3.47
2019-03-25T09:49:06.324Z,5.77
2019-03-25T09:54:10.518Z,4.83
2019-03-25T09:59:15.083Z,7.53
2019-03-25T10:04:20.039Z,5.70
2019-03-25T10:09:23.815Z,3.80
2019-03-25T10:14:26.503Z,7.13
2019-03-25T10:19:29.180Z,4.30
2019-03-25T10:24:32.947Z,9.07
2019-03-25T10:29:35.582Z,3.43
2019-03-25T10:34:38.293Z,4.83
2019-03-25T10:39:40.876Z,3.27
2019-03-25T10:44:43.461Z,5.10
2019-03-25T10:49:46.011Z,6.17
2019-03-25T10:54:48.920Z,3.83
2019-03-25T10:59:51.670Z,5.83
2019-03-25T11:04:54.261Z,4.03
2019-03-25T11:09:56.940Z,1.93
2019-03-25T11:15:02.096Z,4.37
2019-03-25T11:20:04.899Z,3.40
2019-03-25T11:25:08.702Z,3.07
2019-03-25T11:30:13.439Z,3.20
2019-03-25T11:35:16.353Z,4.27
2019-03-25T11:40:19.118Z,6.47
2019-03-25T11:45:21.792Z,5.77
2019-03-25T11:50:24.424Z,5.03
2019-03-25T11:55:27.055Z,6.40
2019-03-25T12:00:29.640Z,4.10
2019-03-25T12:05:32.275Z,4.70
2019-03-25T12:10:34.888Z,6.77
2019-03-25T12:15:37.557Z,6.57
2019-03-25T12:20:40.271Z,6.00
2019-03-25T12:25:42.894Z,8.73
2019-03-25T12:30:45.719Z,4.20
2019-03-25T12:35:50.466Z,6.23
2019-03-25T12:40:53.228Z,3.97
2019-03-25T12:45:55.825Z,5.50
2019-03-25T12:50:58.436Z,6.50
2019-03-25T12:56:01.107Z,4.97
2019-03-25T13:01:06.026Z,3.23
2019-03-25T13:06:08.653Z,1.80
2019-03-25T13:11:11.268Z,3.97
2019-03-25T13:16:13.881Z,2.80
2019-03-25T13:21:16.553Z,2.20
2019-03-25T13:26:19.144Z,2.07
2019-03-25T13:31:21.830Z,1.93
2019-03-25T13:36:24.436Z,5.33
2019-03-25T13:41:27.182Z,4.60
2019-03-25T13:46:29.954Z,3.57
2019-03-25T13:51:32.667Z,1.17
2019-03-25T13:56:35.315Z,4.33
2019-03-25T14:01:37.932Z,1.40
2019-03-25T14:06:40.548Z,1.80
2019-03-25T14:11:43.190Z,2.53
2019-03-25T14:16:45.846Z,0.83
2019-03-25T14:21:48.436Z,4.10
2019-03-25T14:26:51.121Z,1.63
2019-03-25T14:31:53.704Z,3.77
2019-03-25T14:36:56.316Z,1.60
2019-03-25T14:41:59.158Z,1.00
2019-03-25T14:47:01.799Z,4.00
2019-03-25T14:52:04.543Z,2.40
2019-03-25T14:57:07.153Z,2.47
2019-03-25T15:02:09.798Z,1.83
2019-03-25T15:07:12.355Z,2.03
2019-03-25T15:12:14.955Z,1.63
2019-03-25T15:17:17.867Z,4.30
2019-03-25T15:22:20.694Z,1.87
2019-03-25T15:27:23.289Z,1.93
2019-03-25T15:32:25.896Z,3.27
2019-03-25T15:37:28.511Z,1.83
2019-03-25T15:42:31.114Z,3.07
2019-03-25T15:47:33.745Z,1.93
2019-03-25T15:52:36.484Z,0.53
2019-03-25T15:57:39.877Z,1.20
2019-03-25T16:02:42.860Z,1.40
2019-03-25T16:07:45.757Z,3.07
2019-03-25T16:12:48.451Z,2.30
2019-03-25T16:17:51.064Z,1.47
2019-03-25T16:22:53.734Z,0.80
2019-03-25T16:27:56.330Z,1.10
2019-03-25T16:32:58.992Z,1.53
2019-03-25T16:38:01.602Z,3.73
2019-03-25T16:43:04.266Z,1.37
2019-03-25T16:48:06.863Z,1.83
2019-03-25T16:53:10.523Z,0.70
2019-03-25T16:58:13.134Z,1.40
2019-03-25T17:03:15.797Z,2.33
2019-03-25T17:08:18.444Z,4.30
2019-03-25T17:13:21.051Z,1.47
2019-03-25T17:18:24.743Z,1.73
2019-03-25T17:23:27.440Z,1.47
2019-03-25T17:28:30.104Z,2.47
2019-03-25T17:33:32.737Z,5.03
2019-03-25T17:38:35.350Z,2.20
2019-03-25T17:43:37.958Z,1.80
2019-03-25T17:48:40.597Z,1.60
2019-03-25T17:53:43.213Z,2.00
2019-03-25T17:58:46.013Z,2.90
2019-03-25T18:03:48.704Z,3.13
2019-03-25T18:08:51.461Z,3.00
2019-03-25T18:14:02.995Z,2.57
2019-03-25T18:19:05.880Z,2.90
2019-03-25T18:24:08.619Z,5.47
2019-03-25T18:29:11.208Z,4.70
2019-03-25T18:34:13.889Z,3.70
2019-03-25T18:39:16.551Z,4.43
2019-03-25T18:44:19.386Z,5.43
2019-03-25T18:49:22.050Z,2.77
2019-03-25T18:54:24.790Z,3.60
2019-03-25T18:59:27.496Z,5.37
2019-03-25T19:04:30.194Z,3.50
2019-03-25T19:09:32.996Z,5.90
2019-03-25T19:14:35.653Z,11.63
2019-03-25T19:19:39.395Z,8.17
2019-03-25T19:24:42.058Z,6.20
2019-03-25T19:29:44.744Z,5.13
2019-03-25T19:34:47.520Z,6.23
2019-03-25T19:39:50.337Z,5.27
2019-03-25T19:44:52.906Z,8.07
2019-03-25T19:49:55.653Z,7.10
2019-03-25T19:54:58.292Z,5.47
2019-03-25T20:00:03.623Z,4.03
2019-03-25T20:05:07.799Z,4.47
2019-03-25T20:10:26.325Z,4.57
2019-03-25T20:15:35.763Z,7.37
2019-03-25T20:20:35.510Z,4.70
2019-03-25T20:25:38.823Z,6.77
2019-03-25T20:30:41.629Z,6.83
2019-03-25T20:35:46.371Z,6.87
2019-03-25T20:40:48.934Z,5.57
2019-03-25T20:45:51.852Z,5.70
2019-03-25T20:50:55.612Z,4.63
2019-03-25T20:55:58.433Z,6.93
2019-03-25T21:01:01.431Z,5.90
2019-03-25T21:06:04.124Z,5.70
2019-03-25T21:11:06.815Z,3.47
2019-03-25T21:16:09.472Z,4.53
2019-03-25T21:21:12.155Z,5.77
2019-03-25T21:26:16.409Z,5.07
2019-03-25T21:31:19.113Z,5.27
2019-03-25T21:36:21.888Z,8.33
2019-03-25T21:41:24.583Z,5.97
2019-03-25T21:46:28.561Z,5.00
2019-03-25T21:51:31.148Z,6.83
2019-03-25T21:56:33.873Z,6.80
2019-03-25T22:01:36.544Z,4.43
2019-03-25T22:06:39.192Z,5.60
2019-03-25T22:11:41.892Z,9.83
2019-03-25T22:16:44.653Z,5.23
2019-03-25T22:21:47.282Z,6.00
2019-03-25T22:26:49.843Z,4.53
2019-03-25T22:31:52.579Z,4.30
2019-03-25T22:36:55.241Z,3.23
2019-03-25T22:41:57.854Z,4.90
2019-03-25T22:47:01.714Z,4.27
2019-03-25T22:52:05.570Z,7.60
2019-03-25T22:57:09.134Z,7.73
2019-03-25T23:02:11.853Z,7.60
2019-03-25T23:07:14.574Z,3.40
2019-03-25T23:12:17.444Z,3.63
2019-03-25T23:17:20.058Z,7.10
2019-03-25T23:22:22.724Z,7.73
2019-03-25T23:27:27.295Z,6.90
2019-03-25T23:32:31.117Z,8.23
2019-03-25T23:37:33.764Z,6.23
2019-03-25T23:42:36.376Z,5.77
2019-03-25T23:47:39.415Z,6.93
2019-03-25T23:52:42.163Z,6.17
2019-03-25T23:57:44.888Z,8.20
